createdAt,value
2023-03-04T01:15:02.153Z,50.95
2023-03-04T01:17:31.424Z,43.95
2023-03-04T01:20:00.585Z,46.03
2023-03-04T01:22:29.697Z,48.92
2023-03-04T01:24:59.007Z,51.85
2023-03-04T01:27:28.342Z,39.97
2023-03-04T01:29:57.486Z,43.55
2023-03-04T01:32:26.766Z,43.03
2023-03-04T01:34:55.888Z,47.38
2023-03-04T01:37:25.056Z,43.88
2023-03-04T01:39:54.341Z,41.67
2023-03-04T01:42:27.469Z,55.72
2023-03-04T01:44:56.652Z,40.80
2023-03-04T01:47:31.190Z,39.92
2023-03-04T01:50:02.972Z,47.30
2023-03-04T01:52:32.302Z,36.17
2023-03-04T01:55:01.781Z,40.63
2023-03-04T01:57:37.533Z,54.75
2023-03-04T02:00:34.041Z,38.40
2023-03-04T02:03:13.533Z,39.95
2023-03-04T02:05:47.168Z,41.88
2023-03-04T02:08:19.330Z,37.08
2023-03-04T02:10:49.660Z,41.38
2023-03-04T02:13:20.002Z,41.50
2023-03-04T02:15:50.177Z,43.30
2023-03-04T02:18:25.903Z,48.42
2023-03-04T02:21:30.033Z,41.92
2023-03-04T02:24:27.822Z,42.78
2023-03-04T02:26:57.081Z,39.30
2023-03-04T02:29:26.547Z,41.85
2023-03-04T02:31:56.877Z,42.72
2023-03-04T02:34:38.091Z,47.92
2023-03-04T02:37:08.558Z,37.85
2023-03-04T02:39:45.016Z,38.00
2023-03-04T02:42:14.588Z,40.22
2023-03-04T02:44:49.353Z,40.28
2023-03-04T02:47:20.430Z,37.67
2023-03-04T02:49:50.152Z,41.78
2023-03-04T02:52:26.005Z,38.80
2023-03-04T02:54:55.156Z,36.08
2023-03-04T02:57:24.392Z,33.40
2023-03-04T02:59:53.610Z,33.80
2023-03-04T03:02:22.790Z,34.60
2023-03-04T03:04:52.003Z,34.03
2023-03-04T03:07:21.231Z,38.70
2023-03-04T03:09:50.459Z,34.03
2023-03-04T03:12:19.624Z,38.50
2023-03-04T03:14:48.910Z,33.42
2023-03-04T03:17:18.149Z,61.33
2023-03-04T03:19:47.318Z,35.85
2023-03-04T03:22:16.482Z,27.98
2023-03-04T03:24:45.761Z,31.73
2023-03-04T03:27:14.993Z,34.22
2023-03-04T03:29:44.271Z,30.70
2023-03-04T03:32:13.506Z,31.40
2023-03-04T03:34:42.704Z,30.25
2023-03-04T03:37:12.126Z,38.25
2023-03-04T03:39:41.417Z,37.67
2023-03-04T03:42:10.748Z,34.30
2023-03-04T03:44:39.924Z,32.33
2023-03-04T03:47:09.155Z,35.47
2023-03-04T03:49:38.375Z,29.58
2023-03-04T03:52:09.317Z,34.15
2023-03-04T03:54:39.037Z,29.55
2023-03-04T03:57:08.485Z,29.98
2023-03-04T03:59:37.669Z,33.00
2023-03-04T04:02:07.223Z,35.05
2023-03-04T04:04:36.450Z,38.15
2023-03-04T04:07:05.632Z,33.08
2023-03-04T04:09:34.888Z,30.95
2023-03-04T04:12:07.233Z,31.02
2023-03-04T04:14:36.929Z,29.25
2023-03-04T04:17:06.479Z,30.00
2023-03-04T04:19:36.074Z,31.77
2023-03-04T04:22:05.780Z,29.75
2023-03-04T04:24:35.319Z,30.95
2023-03-04T04:27:05.460Z,41.95
2023-03-04T04:29:34.625Z,32.42
2023-03-04T04:32:03.961Z,30.15
2023-03-04T04:34:33.106Z,37.35
2023-03-04T04:37:02.462Z,29.08
2023-03-04T04:39:31.876Z,30.20
2023-03-04T04:42:01.004Z,29.70
2023-03-04T04:44:30.154Z,30.00
2023-03-04T04:46:59.241Z,29.23
2023-03-04T04:49:28.355Z,27.25
2023-03-04T04:51:57.466Z,29.65
2023-03-04T04:54:26.688Z,64.30
2023-03-04T04:56:56.185Z,31.05
2023-03-04T04:59:25.640Z,27.73
2023-03-04T05:01:54.800Z,29.10
2023-03-04T05:04:23.950Z,27.90
2023-03-04T05:06:53.040Z,27.83
2023-03-04T05:09:23.946Z,26.65
2023-03-04T05:11:53.395Z,36.10
2023-03-04T05:14:22.688Z,24.52
2023-03-04T05:16:53.931Z,32.97
2023-03-04T05:19:23.680Z,25.80
2023-03-04T05:21:52.906Z,29.35
2023-03-04T05:24:22.280Z,24.83
2023-03-04T05:26:51.505Z,28.63
2023-03-04T05:29:20.763Z,29.75
2023-03-04T05:31:50.009Z,29.55
2023-03-04T05:34:19.367Z,31.92
2023-03-04T05:36:48.609Z,30.30
2023-03-04T05:39:17.946Z,22.40
2023-03-04T05:41:47.182Z,23.73
2023-03-04T05:44:16.404Z,25.90
2023-03-04T05:46:45.647Z,26.70
2023-03-04T05:49:14.955Z,29.55
2023-03-04T05:51:44.129Z,29.48
2023-03-04T05:54:13.389Z,24.60
2023-03-04T05:56:42.923Z,32.28
2023-03-04T05:59:12.210Z,26.30
2023-03-04T06:01:41.432Z,22.13
2023-03-04T06:04:10.698Z,25.85
2023-03-04T06:06:39.888Z,27.85
2023-03-04T06:09:09.212Z,28.10
2023-03-04T06:11:38.451Z,27.73
2023-03-04T06:14:08.289Z,31.00
2023-03-04T06:16:37.673Z,29.15
2023-03-04T06:19:06.743Z,23.50
2023-03-04T06:21:35.876Z,24.10
2023-03-04T06:24:05.086Z,26.77
2023-03-04T06:26:34.189Z,24.45
2023-03-04T06:29:03.294Z,27.30
2023-03-04T06:31:32.471Z,28.05
2023-03-04T06:34:01.580Z,24.38
2023-03-04T06:36:30.758Z,22.65
2023-03-04T06:38:59.865Z,26.50
2023-03-04T06:41:28.968Z,22.27
2023-03-04T06:43:58.349Z,21.33
2023-03-04T06:46:30.419Z,28.85
2023-03-04T06:48:59.689Z,28.98
2023-03-04T06:51:29.569Z,23.80
2023-03-04T06:53:59.060Z,26.88
2023-03-04T06:56:28.239Z,32.92
2023-03-04T06:58:57.400Z,21.98
2023-03-04T07:01:29.829Z,24.02
2023-03-04T07:03:59.914Z,29.73
2023-03-04T07:06:30.424Z,23.50
2023-03-04T07:09:00.134Z,19.58
2023-03-04T07:11:29.544Z,25.27
2023-03-04T07:13:58.718Z,23.27
2023-03-04T07:16:27.899Z,20.48
2023-03-04T07:18:57.056Z,24.40
2023-03-04T07:21:26.292Z,21.00
2023-03-04T07:23:55.724Z,47.05
2023-03-04T07:26:25.545Z,22.48
2023-03-04T07:28:55.548Z,28.58
2023-03-04T07:31:35.097Z,27.80
2023-03-04T07:34:09.277Z,35.92
2023-03-04T07:36:39.590Z,22.67
2023-03-04T07:39:09.626Z,28.77
2023-03-04T07:41:38.807Z,24.33
2023-03-04T07:44:12.786Z,20.17
2023-03-04T07:46:42.841Z,23.05
2023-03-04T07:49:15.152Z,26.83
2023-03-04T07:51:44.305Z,24.83
2023-03-04T07:54:13.478Z,25.02
2023-03-04T07:56:42.664Z,34.47
2023-03-04T07:59:11.791Z,23.38
2023-03-04T08:01:41.292Z,22.10
2023-03-04T08:04:10.712Z,24.88
2023-03-04T08:06:42.154Z,21.98
2023-03-04T08:09:14.619Z,24.75
2023-03-04T08:11:44.679Z,26.63
2023-03-04T08:14:17.159Z,25.23
2023-03-04T08:16:46.365Z,20.45
2023-03-04T08:19:16.177Z,20.83
2023-03-04T08:21:45.786Z,26.88
2023-03-04T08:24:15.035Z,24.10
2023-03-04T08:26:49.152Z,19.98
2023-03-04T08:29:25.012Z,25.60
2023-03-04T08:31:56.623Z,21.85
2023-03-04T08:34:30.394Z,22.73
2023-03-04T08:37:00.049Z,24.85
2023-03-04T08:39:29.553Z,20.40
2023-03-04T08:41:58.636Z,22.13
2023-03-04T08:44:27.944Z,21.23
2023-03-04T08:46:57.096Z,23.13
2023-03-04T08:49:26.234Z,23.95
2023-03-04T08:51:55.354Z,24.40
2023-03-04T08:54:24.495Z,25.65
2023-03-04T08:56:53.635Z,22.73
2023-03-04T08:59:22.817Z,37.67
2023-03-04T09:01:52.070Z,28.00
2023-03-04T09:04:21.212Z,22.17
2023-03-04T09:06:51.475Z,23.52
2023-03-04T09:09:22.083Z,23.23
2023-03-04T09:11:51.314Z,30.17
2023-03-04T09:14:20.506Z,24.48
2023-03-04T09:16:49.637Z,33.67
2023-03-04T09:19:18.857Z,25.60
2023-03-04T09:21:47.999Z,25.60
2023-03-04T09:24:17.424Z,24.00
2023-03-04T09:26:46.989Z,22.23
2023-03-04T09:29:16.096Z,32.67
2023-03-04T09:31:45.418Z,28.70
2023-03-04T09:34:14.802Z,25.75
2023-03-04T09:36:44.042Z,28.38
2023-03-04T09:39:13.536Z,21.95
2023-03-04T09:41:58.920Z,28.98
2023-03-04T09:44:42.677Z,25.05
2023-03-04T09:47:19.351Z,36.55
2023-03-04T09:50:10.421Z,23.80
2023-03-04T09:53:28.929Z,24.02
2023-03-04T09:55:58.767Z,22.35
2023-03-04T09:58:58.118Z,25.75
2023-03-04T10:01:43.092Z,29.05
2023-03-04T10:04:58.422Z,35.33
2023-03-04T10:07:41.036Z,22.85
2023-03-04T10:10:20.873Z,28.15
2023-03-04T10:12:53.644Z,35.63
2023-03-04T10:15:41.777Z,41.15
2023-03-04T10:21:23.464Z,25.90
2023-03-04T10:23:54.527Z,30.65
2023-03-04T10:26:26.592Z,35.03
2023-03-04T10:28:55.817Z,40.83
2023-03-04T10:31:42.948Z,29.60
2023-03-04T10:34:17.971Z,31.83
2023-03-04T10:37:09.802Z,28.15
2023-03-04T10:39:50.342Z,29.45
2023-03-04T10:42:20.672Z,35.40
2023-03-04T10:44:56.342Z,27.38
2023-03-04T10:47:31.391Z,32.85
2023-03-04T10:50:06.915Z,26.17
2023-03-04T10:52:54.160Z,30.45
2023-03-04T10:55:45.317Z,29.65
2023-03-04T10:58:20.206Z,26.10
2023-03-04T11:01:18.586Z,31.60
2023-03-04T11:03:52.244Z,34.70
2023-03-04T11:06:24.132Z,34.92
2023-03-04T11:09:01.846Z,35.92
2023-03-04T11:11:45.413Z,29.40
2023-03-04T11:14:45.905Z,31.58
2023-03-04T11:17:45.344Z,26.35
2023-03-04T11:20:37.350Z,30.08
2023-03-04T11:23:46.560Z,30.77
2023-03-04T11:26:36.520Z,27.67
2023-03-04T11:30:19.216Z,28.63
2023-03-04T11:32:53.006Z,30.95
2023-03-04T11:35:43.598Z,25.83
2023-03-04T11:38:27.006Z,26.27
2023-03-04T11:41:41.473Z,30.42
2023-03-04T11:47:38.142Z,33.60
2023-03-04T11:53:21.154Z,28.55
2023-03-04T11:56:17.237Z,31.00
2023-03-04T11:59:26.556Z,36.70
2023-03-04T12:02:24.686Z,35.33
2023-03-04T12:08:38.089Z,26.98
2023-03-04T12:11:41.333Z,39.70
2023-03-04T12:14:27.332Z,41.33
2023-03-04T12:17:38.835Z,28.60
2023-03-04T12:20:47.471Z,30.23
2023-03-04T12:27:03.254Z,33.78
2023-03-04T12:29:44.339Z,49.65
2023-03-04T12:32:53.024Z,32.28
2023-03-04T12:35:54.654Z,28.02
2023-03-04T12:39:27.263Z,31.67
2023-03-04T12:42:11.074Z,24.27
2023-03-04T12:44:52.257Z,28.10
2023-03-04T12:47:44.548Z,35.45
2023-03-04T12:50:58.029Z,33.88
2023-03-04T12:53:49.363Z,42.35
2023-03-04T12:56:52.151Z,38.92
2023-03-04T12:59:25.126Z,32.88
2023-03-04T13:02:38.397Z,32.28
2023-03-04T13:05:26.400Z,41.03
2023-03-04T13:08:16.287Z,33.25
2023-03-04T13:10:49.098Z,39.85
2023-03-04T13:13:40.936Z,34.45
2023-03-04T13:16:40.248Z,32.35
2023-03-04T13:19:53.807Z,31.08
2023-03-04T13:22:41.544Z,28.88
2023-03-04T13:25:31.611Z,33.88
2023-03-04T13:28:13.846Z,31.63
2023-03-04T13:31:13.560Z,33.00
2023-03-04T13:33:54.227Z,33.08
2023-03-04T13:36:58.016Z,31.10
2023-03-04T13:39:30.663Z,32.17
2023-03-04T13:42:00.707Z,30.00
2023-03-04T13:45:02.187Z,33.63
2023-03-04T13:47:46.776Z,36.40
2023-03-04T13:50:47.496Z,27.63
2023-03-04T13:53:40.820Z,30.55
2023-03-04T13:56:24.016Z,32.10
2023-03-04T13:59:04.065Z,32.47
2023-03-04T14:01:51.010Z,37.15
2023-03-04T14:04:36.321Z,40.47
2023-03-04T14:07:28.068Z,41.65
2023-03-04T14:10:14.798Z,37.30
2023-03-04T14:12:59.333Z,33.88
2023-03-04T14:15:32.936Z,36.20
2023-03-04T14:18:06.100Z,35.22
2023-03-04T14:20:39.688Z,35.80
2023-03-04T14:23:33.180Z,36.63
2023-03-04T14:26:15.782Z,36.40
2023-03-04T14:28:51.023Z,29.35
2023-03-04T14:31:23.956Z,28.70
2023-03-04T14:34:05.664Z,27.25
2023-03-04T14:36:38.309Z,36.85
2023-03-04T14:39:09.386Z,31.65
2023-03-04T14:41:44.162Z,29.98
2023-03-04T14:44:40.550Z,32.75
2023-03-04T14:47:41.934Z,27.38
2023-03-04T14:50:19.187Z,27.75
2023-03-04T14:52:55.051Z,31.90
2023-03-04T14:55:29.447Z,25.63
2023-03-04T14:58:26.212Z,28.35
2023-03-04T15:01:27.636Z,25.75
2023-03-04T15:04:12.133Z,28.08
2023-03-04T15:06:52.516Z,24.75
2023-03-04T15:09:28.874Z,22.50
2023-03-04T15:12:07.522Z,24.10
2023-03-04T15:14:52.913Z,23.23
2023-03-04T15:18:00.000Z,26.17
2023-03-04T15:20:33.283Z,21.95
2023-03-04T15:23:08.245Z,23.15
2023-03-04T15:25:38.053Z,23.48
2023-03-04T15:28:18.025Z,26.85
2023-03-04T15:30:48.486Z,21.98
2023-03-04T15:33:19.952Z,22.98
2023-03-04T15:36:04.849Z,23.67
2023-03-04T15:38:34.282Z,24.85
2023-03-04T15:41:04.158Z,24.95
2023-03-04T15:43:33.373Z,20.80
2023-03-04T15:46:02.617Z,21.80
2023-03-04T15:48:32.039Z,22.45
2023-03-04T15:51:04.543Z,23.23
2023-03-04T15:53:43.169Z,22.45
2023-03-04T15:56:20.463Z,21.92
2023-03-04T15:58:58.142Z,25.27
2023-03-04T16:01:27.895Z,23.53
2023-03-04T16:03:57.162Z,23.02
2023-03-04T16:06:31.985Z,29.88
2023-03-04T16:09:04.245Z,27.35
2023-03-04T16:11:45.343Z,24.35
2023-03-04T16:14:18.604Z,26.45
2023-03-04T16:16:48.042Z,26.38
2023-03-04T16:19:17.467Z,24.00
2023-03-04T16:21:47.434Z,29.88
2023-03-04T16:24:22.943Z,24.65
2023-03-04T16:26:53.747Z,26.90
2023-03-04T16:29:23.005Z,30.85
2023-03-04T16:31:52.295Z,31.25
2023-03-04T16:34:21.471Z,25.27
2023-03-04T16:36:50.821Z,25.95
2023-03-04T16:39:26.961Z,27.75
2023-03-04T16:41:56.324Z,25.60
2023-03-04T16:44:25.573Z,26.00
2023-03-04T16:46:55.591Z,30.60
2023-03-04T16:49:24.781Z,29.45
2023-03-04T16:51:54.073Z,37.85
2023-03-04T16:54:41.771Z,29.83
2023-03-04T16:57:12.018Z,33.43
2023-03-04T16:59:41.552Z,32.35
2023-03-04T17:02:31.457Z,33.08
2023-03-04T17:05:00.719Z,30.60
2023-03-04T17:07:29.987Z,35.45
2023-03-04T17:09:59.273Z,30.92
2023-03-04T17:12:28.719Z,33.17
2023-03-04T17:14:57.968Z,31.60
2023-03-04T17:17:27.147Z,35.95
2023-03-04T17:19:56.341Z,40.78
2023-03-04T17:22:26.505Z,39.85
2023-03-04T17:24:55.715Z,35.58
2023-03-04T17:27:24.927Z,34.85
2023-03-04T17:29:54.293Z,35.42
2023-03-04T17:32:24.034Z,29.13
2023-03-04T17:34:56.786Z,37.75
2023-03-04T17:37:26.740Z,27.08
2023-03-04T17:39:55.996Z,29.52
2023-03-04T17:42:25.259Z,29.40
2023-03-04T17:44:54.505Z,31.58
2023-03-04T17:47:23.802Z,23.85
2023-03-04T17:49:53.137Z,21.67
2023-03-04T17:52:22.378Z,26.40
2023-03-04T17:54:51.689Z,23.75
2023-03-04T17:57:20.945Z,24.63
2023-03-04T17:59:50.159Z,24.65
2023-03-04T18:02:19.544Z,26.38
2023-03-04T18:04:51.140Z,28.42
2023-03-04T18:07:20.489Z,30.48
2023-03-04T18:09:49.668Z,21.75
2023-03-04T18:12:18.862Z,26.63
2023-03-04T18:14:48.110Z,22.77
2023-03-04T18:17:17.312Z,23.67
2023-03-04T18:19:46.521Z,25.50
2023-03-04T18:22:15.712Z,25.05
2023-03-04T18:24:44.981Z,22.38
2023-03-04T18:27:14.169Z,26.83
2023-03-04T18:29:43.389Z,23.95
2023-03-04T18:32:12.917Z,28.20
2023-03-04T18:34:42.122Z,24.95
2023-03-04T18:37:12.581Z,22.80
2023-03-04T18:39:41.904Z,34.10
2023-03-04T18:42:11.164Z,25.63
2023-03-04T18:44:40.498Z,25.33
2023-03-04T18:47:11.567Z,30.65
2023-03-04T18:49:47.162Z,20.77
2023-03-04T18:52:16.891Z,25.42
2023-03-04T18:54:46.163Z,22.35
2023-03-04T18:57:17.796Z,37.75
2023-03-04T19:00:01.856Z,25.58
2023-03-04T19:02:46.363Z,23.90
2023-03-04T19:05:27.734Z,24.10
2023-03-04T19:07:57.281Z,22.45
2023-03-04T19:10:27.041Z,22.20
2023-03-04T19:12:58.423Z,20.38
2023-03-04T19:15:29.172Z,21.98
2023-03-04T19:17:58.420Z,24.83
2023-03-04T19:20:27.628Z,22.38
2023-03-04T19:22:56.863Z,21.52
2023-03-04T19:25:26.076Z,27.33
2023-03-04T19:27:56.690Z,19.65
2023-03-04T19:30:26.257Z,27.15
2023-03-04T19:32:56.058Z,21.73
2023-03-04T19:35:25.339Z,20.38
2023-03-04T19:37:54.551Z,22.48
2023-03-04T19:40:24.270Z,22.45
2023-03-04T19:42:53.471Z,23.98
2023-03-04T19:45:22.701Z,19.27
2023-03-04T19:47:51.919Z,22.75
2023-03-04T19:50:21.278Z,24.48
2023-03-04T19:52:50.460Z,23.15
2023-03-04T19:55:19.841Z,24.50
2023-03-04T19:57:49.034Z,25.85
2023-03-04T20:00:18.827Z,25.75
2023-03-04T20:02:50.041Z,24.85
2023-03-04T20:05:19.393Z,29.30
2023-03-04T20:07:48.587Z,30.02
2023-03-04T20:10:19.836Z,30.45
2023-03-04T20:12:49.056Z,30.13
2023-03-04T20:15:18.370Z,32.60
2023-03-04T20:17:47.578Z,32.45
2023-03-04T20:20:17.476Z,30.80
2023-03-04T20:22:46.693Z,36.05
2023-03-04T20:25:16.016Z,35.75
2023-03-04T20:27:45.217Z,32.70
2023-03-04T20:30:15.541Z,35.08
2023-03-04T20:32:44.833Z,33.97
2023-03-04T20:35:16.053Z,34.22
2023-03-04T20:37:45.411Z,29.95
2023-03-04T20:40:15.783Z,36.97
2023-03-04T20:42:45.054Z,31.65
2023-03-04T20:45:14.348Z,33.78
2023-03-04T20:47:43.595Z,33.25
2023-03-04T20:50:13.287Z,36.53
2023-03-04T20:52:42.476Z,30.92
2023-03-04T20:55:12.296Z,32.85
2023-03-04T20:57:41.510Z,38.92
2023-03-04T21:00:11.841Z,38.35
2023-03-04T21:02:41.118Z,36.80
2023-03-04T21:05:10.707Z,38.22
2023-03-04T21:07:39.938Z,29.67
2023-03-04T21:10:09.889Z,30.80
2023-03-04T21:12:39.098Z,32.60
2023-03-04T21:15:09.365Z,33.92
2023-03-04T21:17:38.610Z,43.53
2023-03-04T21:20:08.619Z,36.75
2023-03-04T21:22:37.836Z,40.15
2023-03-04T21:25:07.797Z,38.00
2023-03-04T21:27:43.556Z,28.63
2023-03-04T21:30:13.810Z,28.65
2023-03-04T21:32:43.800Z,29.77
2023-03-04T21:35:16.210Z,29.80
2023-03-04T21:37:45.457Z,23.83
2023-03-04T21:40:15.249Z,28.60
2023-03-04T21:42:44.558Z,25.42
2023-03-04T21:45:13.823Z,27.17
2023-03-04T21:47:43.089Z,29.40
2023-03-04T21:50:12.949Z,31.55
2023-03-04T21:52:42.339Z,27.63
2023-03-04T21:55:12.150Z,26.15
2023-03-04T21:57:41.335Z,33.45
2023-03-04T22:00:11.635Z,38.10
2023-03-04T22:02:41.010Z,30.30
2023-03-04T22:05:10.642Z,46.97
2023-03-04T22:07:39.881Z,39.88
2023-03-04T22:10:09.815Z,32.65
2023-03-04T22:12:39.003Z,34.67
2023-03-04T22:15:10.052Z,32.25
2023-03-04T22:17:39.427Z,35.05
2023-03-04T22:20:09.531Z,38.28
2023-03-04T22:22:38.721Z,46.03
2023-03-04T22:25:08.521Z,34.25
2023-03-04T22:27:37.718Z,37.35
2023-03-04T22:30:07.616Z,36.95
2023-03-04T22:32:36.879Z,34.33
2023-03-04T22:35:06.647Z,36.33
2023-03-04T22:37:35.838Z,37.05
2023-03-04T22:40:06.115Z,39.30
2023-03-04T22:42:36.453Z,33.45
2023-03-04T22:45:06.093Z,36.92
2023-03-04T22:47:35.365Z,35.75
2023-03-04T22:50:05.263Z,38.33
2023-03-04T22:52:34.564Z,37.97
2023-03-04T22:55:03.916Z,34.17
2023-03-04T22:57:33.432Z,39.85
2023-03-04T23:00:02.736Z,42.35
2023-03-04T23:02:32.020Z,42.42
2023-03-04T23:05:01.261Z,39.35
2023-03-04T23:07:30.510Z,34.33
2023-03-04T23:09:59.797Z,38.67
2023-03-04T23:12:29.003Z,38.72
2023-03-04T23:14:59.146Z,44.00
2023-03-04T23:17:28.792Z,39.63
2023-03-04T23:19:57.934Z,40.92
2023-03-04T23:22:27.175Z,40.00
2023-03-04T23:24:58.576Z,34.20
2023-03-04T23:27:27.849Z,40.90
2023-03-04T23:29:56.981Z,36.53
2023-03-04T23:32:26.186Z,38.22
2023-03-04T23:34:56.405Z,83.25
2023-03-04T23:37:25.888Z,58.20
2023-03-04T23:39:54.977Z,46.95
2023-03-04T23:42:24.107Z,50.22
2023-03-04T23:44:53.321Z,54.20
2023-03-04T23:47:22.456Z,46.65
2023-03-04T23:49:51.650Z,49.30
2023-03-04T23:52:20.812Z,47.75
2023-03-04T23:54:50.012Z,49.17
2023-03-04T23:57:19.257Z,41.78
2023-03-04T23:59:48.361Z,40.58
